createdAt,value
2023-01-28T00:02:03.969Z,100600.72
2023-01-28T00:04:30.759Z,100598.09
2023-01-28T00:06:57.631Z,100600.78
2023-01-28T00:09:24.573Z,100612.25
2023-01-28T00:11:52.033Z,100606.16
2023-01-28T00:14:18.831Z,100607.03
2023-01-28T00:16:46.488Z,100608.78
2023-01-28T00:19:13.359Z,100603.59
2023-01-28T00:21:40.717Z,100616.72
2023-01-28T00:24:09.653Z,100618.53
2023-01-28T00:26:36.725Z,100629.09
2023-01-28T00:29:03.874Z,100624.72
2023-01-28T00:31:30.927Z,100629.16
2023-01-28T00:33:57.891Z,100635.31
2023-01-28T00:36:26.080Z,100632.72
2023-01-28T00:38:57.539Z,100639.78
2023-01-28T00:41:26.171Z,100643.38
2023-01-28T00:43:53.622Z,100648.69
2023-01-28T00:46:21.598Z,100652.16
2023-01-28T00:48:49.298Z,100657.50
2023-01-28T00:51:17.856Z,100658.41
2023-01-28T00:53:44.803Z,100661.06
2023-01-28T00:56:16.415Z,100663.00
2023-01-28T00:58:43.925Z,100662.06
2023-01-28T01:01:16.985Z,100663.84
2023-01-28T01:03:44.166Z,100670.84
2023-01-28T01:06:12.506Z,100678.84
2023-01-28T01:08:43.190Z,100682.53
2023-01-28T01:11:11.536Z,100692.19
2023-01-28T01:13:38.675Z,100688.75
2023-01-28T01:16:09.652Z,100684.28
2023-01-28T01:18:38.054Z,100687.91
2023-01-28T01:21:15.108Z,100693.16
2023-01-28T01:23:42.087Z,100687.87
2023-01-28T01:26:09.657Z,100694.91
2023-01-28T01:28:37.121Z,100688.69
2023-01-28T01:31:06.442Z,100687.81
2023-01-28T01:33:33.447Z,100693.09
2023-01-28T01:36:00.591Z,100686.91
2023-01-28T01:38:28.028Z,100685.25
2023-01-28T01:41:01.607Z,100693.88
2023-01-28T01:43:48.139Z,100688.75
2023-01-28T01:46:17.356Z,100700.97
2023-01-28T01:48:44.721Z,100692.06
2023-01-28T01:51:15.857Z,100700.03
2023-01-28T01:53:45.407Z,100699.19
2023-01-28T01:56:15.782Z,100692.97
2023-01-28T01:58:44.569Z,100686.91
2023-01-28T02:01:11.788Z,100685.09
2023-01-28T02:03:47.598Z,100680.78
2023-01-28T02:06:14.725Z,100676.47
2023-01-28T02:08:42.498Z,100688.63
2023-01-28T02:11:10.229Z,100678.97
2023-01-28T02:13:40.887Z,100686.09
2023-01-28T02:16:08.425Z,100685.16
2023-01-28T02:18:35.437Z,100681.63
2023-01-28T02:21:26.968Z,100680.84
2023-01-28T02:24:30.913Z,100679.03
2023-01-28T02:27:09.728Z,100680.78
2023-01-28T02:29:56.618Z,100684.37
2023-01-28T02:33:11.789Z,100675.56
2023-01-28T02:35:54.809Z,100678.31
2023-01-28T02:38:27.332Z,100684.78
2023-01-28T02:41:05.913Z,100681.22
2023-01-28T02:43:41.306Z,100689.09
2023-01-28T02:46:58.871Z,100690.12
2023-01-28T02:49:40.330Z,100689.31
2023-01-28T02:52:16.053Z,100692.81
2023-01-28T02:55:10.471Z,100691.16
2023-01-28T02:57:37.340Z,100699.22
2023-01-28T03:00:08.558Z,100693.91
2023-01-28T03:02:43.236Z,100689.56
2023-01-28T03:05:23.607Z,100700.91
2023-01-28T03:07:51.174Z,100693.03
2023-01-28T03:10:21.545Z,100682.56
2023-01-28T03:13:12.608Z,100693.88
2023-01-28T03:16:06.806Z,100692.03
2023-01-28T03:19:03.628Z,100692.16
2023-01-28T03:22:03.172Z,100698.47
2023-01-28T03:24:54.474Z,100701.22
2023-01-28T03:27:45.992Z,100698.81
2023-01-28T03:30:39.220Z,100701.50
2023-01-28T03:33:25.712Z,100698.78
2023-01-28T03:36:11.084Z,100695.94
2023-01-28T03:38:42.830Z,100694.06
2023-01-28T03:41:11.035Z,100685.22
2023-01-28T03:43:38.350Z,100685.09
2023-01-28T03:46:06.486Z,100685.94
2023-01-28T03:48:33.442Z,100687.63
2023-01-28T03:51:00.511Z,100684.22
2023-01-28T03:53:28.576Z,100691.34
2023-01-28T03:55:56.801Z,100702.03
2023-01-28T03:58:27.189Z,100698.53
2023-01-28T04:00:54.453Z,100705.56
2023-01-28T04:03:22.261Z,100706.50
2023-01-28T04:06:06.200Z,100712.75
2023-01-28T04:08:33.559Z,100712.69
2023-01-28T04:11:15.704Z,100712.63
2023-01-28T04:13:43.504Z,100700.12
2023-01-28T04:16:11.158Z,100706.16
2023-01-28T04:18:38.249Z,100704.44
2023-01-28T04:21:06.125Z,100709.75
2023-01-28T04:23:33.100Z,100711.66
2023-01-28T04:26:00.033Z,100701.97
2023-01-28T04:28:27.182Z,100709.81
2023-01-28T04:30:54.036Z,100706.09
2023-01-28T04:33:21.131Z,100698.16
2023-01-28T04:35:48.036Z,100706.03
2023-01-28T04:38:14.936Z,100706.09
2023-01-28T04:40:41.733Z,100713.12
2023-01-28T04:43:09.106Z,100704.31
2023-01-28T04:45:35.975Z,100713.16
2023-01-28T04:48:02.806Z,100723.06
2023-01-28T04:50:29.844Z,100726.56
2023-01-28T04:52:56.650Z,100725.53
2023-01-28T04:55:23.593Z,100729.03
2023-01-28T04:57:50.407Z,100729.97
2023-01-28T05:00:17.738Z,100726.34
2023-01-28T05:02:44.827Z,100731.56
2023-01-28T05:05:11.731Z,100729.91
2023-01-28T05:07:38.591Z,100731.81
2023-01-28T05:10:06.388Z,100733.53
2023-01-28T05:12:34.202Z,100733.56
2023-01-28T05:15:01.382Z,100733.53
2023-01-28T05:17:29.126Z,100729.09
2023-01-28T05:19:56.130Z,100735.19
2023-01-28T05:22:23.184Z,100741.31
2023-01-28T05:24:50.166Z,100744.75
2023-01-28T05:27:17.317Z,100736.78
2023-01-28T05:29:44.264Z,100738.63
2023-01-28T05:32:11.301Z,100740.22
2023-01-28T05:34:38.239Z,100741.09
2023-01-28T05:37:05.084Z,100734.94
2023-01-28T05:39:32.243Z,100738.31
2023-01-28T05:41:59.094Z,100739.97
2023-01-28T05:44:26.104Z,100739.13
2023-01-28T05:46:53.750Z,100740.84
2023-01-28T05:49:22.282Z,100740.78
2023-01-28T05:51:49.884Z,100747.94
2023-01-28T05:54:16.767Z,100732.25
2023-01-28T05:56:43.636Z,100749.81
2023-01-28T05:59:11.808Z,100756.91
2023-01-28T06:01:38.753Z,100758.69
2023-01-28T06:04:05.710Z,100756.91
2023-01-28T06:06:37.074Z,100763.06
2023-01-28T06:09:04.362Z,100763.00
2023-01-28T06:11:31.338Z,100764.91
2023-01-28T06:14:00.028Z,100769.37
2023-01-28T06:16:27.384Z,100778.38
2023-01-28T06:18:54.151Z,100775.75
2023-01-28T06:21:21.370Z,100778.31
2023-01-28T06:23:48.283Z,100779.19
2023-01-28T06:26:15.137Z,100782.75
2023-01-28T06:28:41.948Z,100796.06
2023-01-28T06:31:08.828Z,100793.47
2023-01-28T06:33:35.706Z,100791.75
2023-01-28T06:36:05.474Z,100805.88
2023-01-28T06:38:32.798Z,100812.09
2023-01-28T06:40:59.745Z,100810.41
2023-01-28T06:43:27.692Z,100822.69
2023-01-28T06:46:00.917Z,100834.22
2023-01-28T06:48:35.753Z,100829.63
2023-01-28T06:51:03.231Z,100837.41
2023-01-28T06:53:46.126Z,100825.94
2023-01-28T06:56:14.916Z,100829.44
2023-01-28T06:58:41.784Z,100835.59
2023-01-28T07:01:14.175Z,100837.25
2023-01-28T07:03:49.533Z,100831.06
2023-01-28T07:06:31.336Z,100839.84
2023-01-28T07:09:07.280Z,100844.19
2023-01-28T07:11:36.461Z,100838.06
2023-01-28T07:14:03.637Z,100841.53
2023-01-28T07:16:31.043Z,100847.66
2023-01-28T07:18:57.930Z,100852.12
2023-01-28T07:21:26.480Z,100842.50
2023-01-28T07:23:59.872Z,100839.72
2023-01-28T07:26:29.290Z,100843.28
2023-01-28T07:29:03.983Z,100851.91
2023-01-28T07:31:34.758Z,100855.41
2023-01-28T07:34:01.966Z,100848.31
2023-01-28T07:36:29.305Z,100851.69
2023-01-28T07:38:56.744Z,100854.19
2023-01-28T07:41:23.781Z,100847.94
2023-01-28T07:43:50.885Z,100844.34
2023-01-28T07:46:42.962Z,100848.56
2023-01-28T07:49:16.137Z,100837.91
2023-01-28T07:51:53.647Z,100850.06
2023-01-28T07:54:20.914Z,100845.69
2023-01-28T07:56:47.960Z,100848.41
2023-01-28T07:59:24.888Z,100854.84
2023-01-28T08:02:04.680Z,100863.56
2023-01-28T08:04:31.766Z,100865.03
2023-01-28T08:06:58.798Z,100864.13
2023-01-28T08:09:35.500Z,100865.97
2023-01-28T08:12:08.369Z,100866.66
2023-01-28T08:14:38.323Z,100871.75
2023-01-28T08:17:05.143Z,100880.53
2023-01-28T08:19:32.012Z,100871.75
2023-01-28T08:22:05.713Z,100876.84
2023-01-28T08:24:38.536Z,100874.97
2023-01-28T08:27:09.050Z,100877.63
2023-01-28T08:29:47.106Z,100871.50
2023-01-28T08:32:24.145Z,100871.28
2023-01-28T08:34:51.072Z,100869.44
2023-01-28T08:37:24.011Z,100878.03
2023-01-28T08:39:55.092Z,100875.19
2023-01-28T08:42:21.954Z,100863.47
2023-01-28T08:44:49.273Z,100868.53
2023-01-28T08:47:25.057Z,100857.00
2023-01-28T08:49:55.391Z,100852.34
2023-01-28T08:52:29.786Z,100847.63
2023-01-28T08:54:58.051Z,100831.47
2023-01-28T08:57:28.198Z,100824.09
2023-01-28T09:00:00.147Z,100812.50
2023-01-28T09:02:35.657Z,100814.62
2023-01-28T09:05:07.135Z,100792.56
2023-01-28T09:07:44.293Z,100802.81
2023-01-28T09:10:17.354Z,100802.66
2023-01-28T09:12:46.675Z,100810.34
2023-01-28T09:15:16.825Z,100808.28
2023-01-28T09:17:54.711Z,100816.03
2023-01-28T09:20:22.561Z,100800.06
2023-01-28T09:22:50.502Z,100799.69
2023-01-28T09:25:17.521Z,100807.16
2023-01-28T09:27:44.500Z,100811.03
2023-01-28T09:30:14.039Z,100810.25
2023-01-28T09:32:41.673Z,100824.94
2023-01-28T09:35:08.720Z,100820.19
2023-01-28T09:37:35.662Z,100831.00
2023-01-28T09:40:03.694Z,100827.53
2023-01-28T09:42:47.643Z,100828.34
2023-01-28T09:45:38.796Z,100824.66
2023-01-28T09:48:07.177Z,100834.97
2023-01-28T09:50:36.396Z,100835.09
2023-01-28T09:53:08.040Z,100848.88
2023-01-28T09:55:38.369Z,100841.00
2023-01-28T09:58:17.658Z,100846.09
2023-01-28T10:00:50.754Z,100834.50
2023-01-28T10:03:26.903Z,100834.03
2023-01-28T10:06:14.486Z,100830.84
2023-01-28T10:09:12.956Z,100825.41
2023-01-28T10:11:45.929Z,100826.56
2023-01-28T10:14:28.425Z,100826.78
2023-01-28T10:17:04.402Z,100815.97
2023-01-28T10:19:35.705Z,100832.16
2023-01-28T10:22:08.841Z,100815.56
2023-01-28T10:24:39.061Z,100835.03
2023-01-28T10:27:17.831Z,100827.78
2023-01-28T10:29:46.754Z,100811.31
2023-01-28T10:32:25.548Z,100817.06
2023-01-28T10:34:53.518Z,100816.37
2023-01-28T10:37:21.592Z,100797.22
2023-01-28T10:39:48.865Z,100811.28
2023-01-28T10:42:24.372Z,100796.59
2023-01-28T10:44:51.353Z,100808.34
2023-01-28T10:47:29.929Z,100799.19
2023-01-28T10:50:00.040Z,100790.19
2023-01-28T10:52:26.906Z,100785.81
2023-01-28T10:55:05.584Z,100802.87
2023-01-28T10:57:35.380Z,100812.41
2023-01-28T11:00:12.900Z,100812.47
2023-01-28T11:02:40.222Z,100803.84
2023-01-28T11:05:17.260Z,100784.78
2023-01-28T11:07:44.645Z,100807.69
2023-01-28T11:10:32.178Z,100802.41
2023-01-28T11:13:00.612Z,100788.47
2023-01-28T11:15:27.517Z,100794.31
2023-01-28T11:18:11.396Z,100793.88
2023-01-28T11:20:45.604Z,100793.81
2023-01-28T11:23:22.881Z,100792.53
2023-01-28T11:25:49.899Z,100811.25
2023-01-28T11:28:19.628Z,100809.72
2023-01-28T11:30:51.735Z,100784.56
2023-01-28T11:33:24.489Z,100786.66
2023-01-28T11:35:58.819Z,100786.84
2023-01-28T11:38:26.180Z,100754.41
2023-01-28T11:40:55.070Z,100769.81
2023-01-28T11:43:23.648Z,100777.50
2023-01-28T11:45:56.620Z,100784.06
2023-01-28T11:48:42.289Z,100773.22
2023-01-28T11:51:22.502Z,100773.91
2023-01-28T11:54:29.473Z,100777.50
2023-01-28T11:57:05.206Z,100773.72
2023-01-28T12:00:00.219Z,100785.03
2023-01-28T12:02:44.876Z,100779.75
2023-01-28T12:05:30.670Z,100785.72
2023-01-28T12:08:08.782Z,100779.53
2023-01-28T12:10:44.862Z,100786.25
2023-01-28T12:13:36.494Z,100779.16
2023-01-28T12:16:21.656Z,100787.66
2023-01-28T12:19:19.619Z,100795.38
2023-01-28T12:22:13.788Z,100785.16
2023-01-28T12:24:50.094Z,100772.97
2023-01-28T12:27:19.756Z,100790.38
2023-01-28T12:29:59.841Z,100789.69
2023-01-28T12:32:42.174Z,100781.06
2023-01-28T12:35:51.166Z,100784.66
2023-01-28T12:38:48.870Z,100778.16
2023-01-28T12:41:21.729Z,100789.53
2023-01-28T12:43:58.768Z,100785.19
2023-01-28T12:46:37.752Z,100792.00
2023-01-28T12:49:19.761Z,100769.53
2023-01-28T12:51:46.597Z,100778.16
2023-01-28T12:54:20.784Z,100777.72
2023-01-28T12:56:55.318Z,100771.78
2023-01-28T12:59:44.570Z,100771.09
2023-01-28T13:02:11.505Z,100776.50
2023-01-28T13:05:05.674Z,100789.00
2023-01-28T13:07:48.255Z,100782.81
2023-01-28T13:10:36.665Z,100797.94
2023-01-28T13:13:04.895Z,100793.47
2023-01-28T13:15:32.801Z,100790.31
2023-01-28T13:18:05.190Z,100770.19
2023-01-28T13:20:50.059Z,100795.59
2023-01-28T13:23:41.933Z,100786.25
2023-01-28T13:26:28.479Z,100790.16
2023-01-28T13:29:19.048Z,100794.41
2023-01-28T13:31:51.138Z,100789.50
2023-01-28T13:34:37.839Z,100796.75
2023-01-28T13:37:16.829Z,100788.16
2023-01-28T13:39:53.072Z,100796.69
2023-01-28T13:42:30.463Z,100807.09
2023-01-28T13:45:29.259Z,100799.31
2023-01-28T13:48:23.966Z,100823.31
2023-01-28T13:50:53.159Z,100820.03
2023-01-28T13:53:37.593Z,100821.00
2023-01-28T13:56:08.251Z,100820.44
2023-01-28T13:59:04.503Z,100829.13
2023-01-28T14:01:52.994Z,100828.12
2023-01-28T14:04:45.342Z,100832.28
2023-01-28T14:08:01.512Z,100836.50
2023-01-28T14:10:34.968Z,100843.19
2023-01-28T14:13:23.039Z,100840.16
2023-01-28T14:16:12.181Z,100848.91
2023-01-28T14:18:43.087Z,100846.41
2023-01-28T14:21:16.705Z,100857.72
2023-01-28T14:23:55.971Z,100856.03
2023-01-28T14:26:42.531Z,100863.22
2023-01-28T14:29:18.969Z,100857.16
2023-01-28T14:31:46.251Z,100868.53
2023-01-28T14:34:28.726Z,100874.06
2023-01-28T14:36:59.784Z,100868.66
2023-01-28T14:39:32.797Z,100865.59
2023-01-28T14:42:01.826Z,100876.22
2023-01-28T14:44:37.048Z,100885.06
2023-01-28T14:47:04.082Z,100886.88
2023-01-28T14:50:03.099Z,100888.81
2023-01-28T14:52:44.691Z,100900.28
2023-01-28T14:55:27.711Z,100910.25
2023-01-28T14:57:57.597Z,100918.31
2023-01-28T15:00:27.916Z,100905.97
2023-01-28T15:02:54.924Z,100920.09
2023-01-28T15:05:24.700Z,100926.34
2023-01-28T15:07:51.732Z,100929.28
2023-01-28T15:10:31.511Z,100930.22
2023-01-28T15:13:03.769Z,100936.62
2023-01-28T15:15:34.239Z,100943.84
2023-01-28T15:18:23.712Z,100949.13
2023-01-28T15:20:53.343Z,100952.91
2023-01-28T15:23:26.523Z,100957.41
2023-01-28T15:25:55.351Z,100956.56
2023-01-28T15:28:33.058Z,100974.53
2023-01-28T15:31:00.360Z,100989.78
2023-01-28T15:33:27.294Z,100979.91
2023-01-28T15:35:56.230Z,100988.88
2023-01-28T15:38:24.780Z,100991.66
2023-01-28T15:40:59.446Z,100999.69
2023-01-28T15:43:29.458Z,100995.56
2023-01-28T15:45:57.476Z,101005.50
2023-01-28T15:48:30.853Z,101007.25
2023-01-28T15:51:02.659Z,101007.31
2023-01-28T15:53:43.732Z,101002.03
2023-01-28T15:56:14.657Z,101002.97
2023-01-28T15:58:42.333Z,101012.84
2023-01-28T16:01:14.580Z,101010.25
2023-01-28T16:03:44.064Z,101010.41
2023-01-28T16:06:16.714Z,101029.09
2023-01-28T16:08:48.320Z,101024.53
2023-01-28T16:11:22.725Z,101032.75
2023-01-28T16:13:49.752Z,101045.06
2023-01-28T16:16:26.715Z,101030.97
2023-01-28T16:18:55.941Z,101044.31
2023-01-28T16:21:32.495Z,101032.22
2023-01-28T16:24:04.493Z,101046.25
2023-01-28T16:26:34.554Z,101049.75
2023-01-28T16:29:17.146Z,101049.88
2023-01-28T16:31:44.530Z,101049.03
2023-01-28T16:34:11.748Z,101056.97
2023-01-28T16:36:38.669Z,101057.87
2023-01-28T16:39:05.612Z,101065.84
2023-01-28T16:41:44.887Z,101066.75
2023-01-28T16:44:15.587Z,101062.31
2023-01-28T16:46:44.218Z,101074.75
2023-01-28T16:49:11.239Z,101064.97
2023-01-28T16:51:40.267Z,101062.38
2023-01-28T16:54:07.417Z,101063.31
2023-01-28T16:56:49.932Z,101066.81
2023-01-28T16:59:16.931Z,101065.03
2023-01-28T17:01:44.652Z,101066.81
2023-01-28T17:04:12.970Z,101071.19
2023-01-28T17:06:43.283Z,101062.44
2023-01-28T17:09:12.217Z,101073.91
2023-01-28T17:11:46.925Z,101076.56
2023-01-28T17:14:17.881Z,101074.81
2023-01-28T17:16:44.780Z,101071.31
2023-01-28T17:19:11.883Z,101069.53
2023-01-28T17:21:39.109Z,101068.63
2023-01-28T17:24:07.263Z,101069.56
2023-01-28T17:26:35.510Z,101081.91
2023-01-28T17:29:04.328Z,101087.19
2023-01-28T17:31:31.958Z,101085.41
2023-01-28T17:33:59.594Z,101088.97
2023-01-28T17:36:27.212Z,101093.41
2023-01-28T17:38:55.008Z,101095.09
2023-01-28T17:41:21.889Z,101094.31
2023-01-28T17:43:53.017Z,101097.84
2023-01-28T17:46:20.839Z,101103.97
2023-01-28T17:48:48.244Z,101111.94
2023-01-28T17:51:19.007Z,101105.66
2023-01-28T17:53:50.832Z,101099.56
2023-01-28T17:56:20.545Z,101103.94
2023-01-28T17:59:06.505Z,101101.34
2023-01-28T18:01:34.248Z,101104.00
2023-01-28T18:04:01.574Z,101114.59
2023-01-28T18:06:33.462Z,101113.66
2023-01-28T18:09:00.573Z,101119.88
2023-01-28T18:11:28.558Z,101106.66
2023-01-28T18:13:55.593Z,101113.78
2023-01-28T18:16:22.944Z,101131.44
2023-01-28T18:18:50.636Z,101123.69
2023-01-28T18:21:52.102Z,101144.09
2023-01-28T18:24:27.204Z,101138.84
2023-01-28T18:27:01.188Z,101147.66
2023-01-28T18:29:29.536Z,101137.25
2023-01-28T18:31:57.975Z,101153.16
2023-01-28T18:34:28.385Z,101147.88
2023-01-28T18:36:57.142Z,101164.56
2023-01-28T18:39:26.790Z,101158.41
2023-01-28T18:41:54.845Z,101158.34
2023-01-28T18:44:23.208Z,101153.97
2023-01-28T18:46:50.743Z,101157.53
2023-01-28T18:49:17.729Z,101153.09
2023-01-28T18:51:44.828Z,101161.97
2023-01-28T18:54:14.516Z,101161.91
2023-01-28T18:56:43.020Z,101157.62
2023-01-28T18:59:12.648Z,101163.84
2023-01-28T19:01:42.508Z,101161.25
2023-01-28T19:04:10.413Z,101167.47
2023-01-28T19:06:37.273Z,101155.16
2023-01-28T19:09:08.578Z,101168.38
2023-01-28T19:11:38.106Z,101166.66
2023-01-28T19:14:06.293Z,101169.37
2023-01-28T19:16:35.390Z,101170.41
2023-01-28T19:19:02.809Z,101175.69
2023-01-28T19:21:30.415Z,101178.44
2023-01-28T19:24:00.652Z,101184.72
2023-01-28T19:26:29.711Z,101184.75
2023-01-28T19:28:56.976Z,101187.41
2023-01-28T19:31:24.786Z,101187.50
2023-01-28T19:33:57.618Z,101191.12
2023-01-28T19:36:26.817Z,101200.06
2023-01-28T19:38:57.188Z,101206.28
2023-01-28T19:41:24.978Z,101209.75
2023-01-28T19:43:52.060Z,101213.16
2023-01-28T19:46:19.093Z,101206.91
2023-01-28T19:48:46.329Z,101206.00
2023-01-28T19:51:14.960Z,101206.16
2023-01-28T19:53:43.767Z,101205.34
2023-01-28T19:56:13.752Z,101208.84
2023-01-28T19:58:42.725Z,101219.41
2023-01-28T20:01:16.729Z,101210.59
2023-01-28T20:03:45.941Z,101221.06
2023-01-28T20:06:15.689Z,101213.09
2023-01-28T20:08:43.583Z,101226.34
2023-01-28T20:11:15.237Z,101217.56
2023-01-28T20:13:44.301Z,101220.94
2023-01-28T20:16:16.622Z,101214.81
2023-01-28T20:18:44.725Z,101224.53
2023-01-28T20:21:11.851Z,101221.84
2023-01-28T20:23:38.967Z,101229.81
2023-01-28T20:26:06.132Z,101222.75
2023-01-28T20:28:32.967Z,101221.94
2023-01-28T20:31:05.042Z,101229.00
2023-01-28T20:33:32.287Z,101227.25
2023-01-28T20:36:03.550Z,101232.53
2023-01-28T20:38:31.013Z,101224.66
2023-01-28T20:40:58.041Z,101237.00
2023-01-28T20:43:28.452Z,101242.38
2023-01-28T20:46:02.686Z,101241.47
2023-01-28T20:48:29.548Z,101244.13
2023-01-28T20:50:56.759Z,101260.94
2023-01-28T20:53:23.581Z,101247.72
2023-01-28T20:55:58.465Z,101267.16
2023-01-28T20:58:26.266Z,101264.50
2023-01-28T21:00:53.719Z,101265.41
2023-01-28T21:03:21.196Z,101268.09
2023-01-28T21:05:48.511Z,101274.22
2023-01-28T21:08:16.605Z,101280.38
2023-01-28T21:10:44.101Z,101268.00
2023-01-28T21:13:13.602Z,101272.41
2023-01-28T21:15:40.548Z,101252.28
2023-01-28T21:18:07.693Z,101277.63
2023-01-28T21:20:34.629Z,101272.34
2023-01-28T21:23:01.810Z,101278.47
2023-01-28T21:25:29.333Z,101281.06
2023-01-28T21:27:56.417Z,101261.66
2023-01-28T21:30:23.702Z,101269.47
2023-01-28T21:32:50.587Z,101264.25
2023-01-28T21:35:17.700Z,101266.06
2023-01-28T21:37:47.617Z,101277.50
2023-01-28T21:40:15.245Z,101273.13
2023-01-28T21:42:43.578Z,101264.37
2023-01-28T21:45:11.145Z,101272.41
2023-01-28T21:47:38.020Z,101270.59
2023-01-28T21:50:05.946Z,101271.53
2023-01-28T21:52:33.516Z,101275.09
2023-01-28T21:55:00.464Z,101276.88
2023-01-28T21:57:27.537Z,101270.69
2023-01-28T21:59:54.353Z,101270.66
2023-01-28T22:02:23.922Z,101283.84
2023-01-28T22:04:50.925Z,101278.59
2023-01-28T22:07:23.024Z,101281.22
2023-01-28T22:09:52.594Z,101281.31
2023-01-28T22:12:21.565Z,101287.41
2023-01-28T22:14:50.147Z,101291.94
2023-01-28T22:17:19.180Z,101298.16
2023-01-28T22:19:48.213Z,101306.97
2023-01-28T22:22:16.122Z,101310.53
2023-01-28T22:24:42.971Z,101301.78
2023-01-28T22:27:09.838Z,101308.81
2023-01-28T22:29:36.688Z,101309.66
2023-01-28T22:32:04.887Z,101313.16
2023-01-28T22:34:32.029Z,101306.91
2023-01-28T22:36:59.119Z,101308.66
2023-01-28T22:39:26.108Z,101308.75
2023-01-28T22:41:53.314Z,101322.03
2023-01-28T22:44:20.233Z,101320.31
2023-01-28T22:46:47.656Z,101321.22
2023-01-28T22:49:15.256Z,101321.22
2023-01-28T22:51:42.695Z,101327.31
2023-01-28T22:54:11.086Z,101332.63
2023-01-28T22:56:38.379Z,101320.38
2023-01-28T22:59:05.657Z,101313.22
2023-01-28T23:01:33.177Z,101319.41
2023-01-28T23:04:00.358Z,101313.22
2023-01-28T23:06:28.023Z,101312.38
2023-01-28T23:08:56.415Z,101315.03
2023-01-28T23:11:27.587Z,101311.53
2023-01-28T23:14:20.324Z,101309.75
2023-01-28T23:17:06.267Z,101318.56
2023-01-28T23:19:52.054Z,101314.34
2023-01-28T23:22:43.128Z,101322.41
2023-01-28T23:25:10.342Z,101330.41
2023-01-28T23:27:37.446Z,101333.13
2023-01-28T23:30:09.872Z,101324.44
2023-01-28T23:32:42.243Z,101333.25
2023-01-28T23:35:10.326Z,101335.97
2023-01-28T23:37:37.679Z,101322.84
2023-01-28T23:40:06.417Z,101321.97
2023-01-28T23:42:33.764Z,101333.34
2023-01-28T23:45:01.048Z,101326.25
2023-01-28T23:47:28.191Z,101332.44
2023-01-28T23:49:55.222Z,101328.84
2023-01-28T23:52:23.433Z,101334.97
2023-01-28T23:54:50.340Z,101335.00
2023-01-28T23:57:17.199Z,101331.47
2023-01-28T23:59:45.057Z,101325.31
